Terminal Aerodrome Forecast
Issued by NWS North Platte, NE

Home | Current Version | Previous Version | Graphics & Text | Print | Product List | Glossary Off
Versions: 1 2 3 4 5 6 7 8 9 10 11 12

000
FTUS43 KLBF 211700
TAFVTN
TAF
KVTN 211734Z 2118/2218 18020G29KT P6SM SCT150
     FM220100 17015KT P6SM SCT150
     FM220800 22010KT P6SM BKN050 OVC100 PROB30 2211/2214 5SM -SHRA
      BKN030
     FM221500 31007KT P6SM BKN100=

USA.gov is the U.S. government's official web portal to all federal, state and local government web resources and services.